sensor_id;sensor_type;location;lat;lon;timestamp;P1;durP1;ratioP1;P2;durP2;ratioP2
19985;SDS011;10154;52.474;10.768;2022-10-29T00:07:24;17.10;;;6.40;;
19985;SDS011;10154;52.474;10.768;2022-10-29T00:09:49;19.10;;;6.53;;
19985;SDS011;10154;52.474;10.768;2022-10-29T00:12:15;22.63;;;6.47;;
19985;SDS011;10154;52.474;10.768;2022-10-29T00:14:40;18.87;;;6.67;;
19985;SDS011;10154;52.474;10.768;2022-10-29T00:17:05;15.07;;;6.27;;
19985;SDS011;10154;52.474;10.768;2022-10-29T00:19:31;17.17;;;6.17;;
19985;SDS011;10154;52.474;10.768;2022-10-29T00:21:56;15.97;;;6.17;;
19985;SDS011;10154;52.474;10.768;2022-10-29T00:24:21;22.43;;;6.60;;
19985;SDS011;10154;52.474;10.768;2022-10-29T00:26:47;16.80;;;6.50;;
19985;SDS011;10154;52.474;10.768;2022-10-29T00:29:12;16.63;;;6.53;;
19985;SDS011;10154;52.474;10.768;2022-10-29T00:31:37;15.60;;;6.27;;
19985;SDS011;10154;52.474;10.768;2022-10-29T00:34:03;22.07;;;5.93;;
19985;SDS011;10154;52.474;10.768;2022-10-29T00:36:28;14.80;;;5.87;;
19985;SDS011;10154;52.474;10.768;2022-10-29T00:38:54;18.07;;;6.40;;
19985;SDS011;10154;52.474;10.768;2022-10-29T00:41:22;18.30;;;6.70;;
19985;SDS011;10154;52.474;10.768;2022-10-29T00:43:51;18.73;;;6.23;;
19985;SDS011;10154;52.474;10.768;2022-10-29T00:46:36;16.93;;;6.17;;
19985;SDS011;10154;52.474;10.768;2022-10-29T00:49:02;22.90;;;6.30;;
19985;SDS011;10154;52.474;10.768;2022-10-29T00:51:27;28.33;;;6.30;;
19985;SDS011;10154;52.474;10.768;2022-10-29T00:54:01;13.73;;;6.10;;
19985;SDS011;10154;52.474;10.768;2022-10-29T00:56:32;17.07;;;5.73;;
19985;SDS011;10154;52.474;10.768;2022-10-29T00:58:59;18.63;;;6.13;;
19985;SDS011;10154;52.474;10.768;2022-10-29T01:01:25;16.00;;;6.10;;
19985;SDS011;10154;52.474;10.768;2022-10-29T01:03:51;18.03;;;6.30;;
19985;SDS011;10154;52.474;10.768;2022-10-29T01:06:16;14.23;;;5.77;;
19985;SDS011;10154;52.474;10.768;2022-10-29T01:08:42;17.10;;;6.13;;
19985;SDS011;10154;52.474;10.768;2022-10-29T01:40:58;15.63;;;5.50;;
19985;SDS011;10154;52.474;10.768;2022-10-29T01:43:47;18.23;;;5.60;;
19985;SDS011;10154;52.474;10.768;2022-10-29T01:46:15;13.43;;;5.43;;
19985;SDS011;10154;52.474;10.768;2022-10-29T01:48:43;15.80;;;5.27;;
19985;SDS011;10154;52.474;10.768;2022-10-29T01:51:14;17.13;;;5.60;;
19985;SDS011;10154;52.474;10.768;2022-10-29T01:53:43;11.27;;;4.83;;
19985;SDS011;10154;52.474;10.768;2022-10-29T01:56:08;15.13;;;5.53;;
19985;SDS011;10154;52.474;10.768;2022-10-29T01:58:33;16.63;;;5.30;;
19985;SDS011;10154;52.474;10.768;2022-10-29T02:01:03;14.80;;;5.40;;
19985;SDS011;10154;52.474;10.768;2022-10-29T02:03:59;17.33;;;5.60;;
19985;SDS011;10154;52.474;10.768;2022-10-29T02:06:49;15.50;;;5.17;;
19985;SDS011;10154;52.474;10.768;2022-10-29T02:09:31;14.80;;;5.10;;
19985;SDS011;10154;52.474;10.768;2022-10-29T02:12:19;13.80;;;5.17;;
19985;SDS011;10154;52.474;10.768;2022-10-29T02:17:21;13.17;;;5.40;;
19985;SDS011;10154;52.474;10.768;2022-10-29T02:19:47;15.27;;;5.83;;
19985;SDS011;10154;52.474;10.768;2022-10-29T02:22:12;14.70;;;5.60;;
19985;SDS011;10154;52.474;10.768;2022-10-29T02:24:38;17.33;;;6.10;;
19985;SDS011;10154;52.474;10.768;2022-10-29T02:27:03;18.00;;;5.67;;
19985;SDS011;10154;52.474;10.768;2022-10-29T02:29:29;10.30;;;5.67;;
19985;SDS011;10154;52.474;10.768;2022-10-29T02:31:54;16.73;;;5.90;;
19985;SDS011;10154;52.474;10.768;2022-10-29T02:34:19;15.90;;;6.60;;
19985;SDS011;10154;52.474;10.768;2022-10-29T02:36:44;18.40;;;5.90;;
19985;SDS011;10154;52.474;10.768;2022-10-29T02:39:10;20.97;;;6.23;;
19985;SDS011;10154;52.474;10.768;2022-10-29T02:41:35;17.47;;;6.10;;
19985;SDS011;10154;52.474;10.768;2022-10-29T02:44:00;17.10;;;6.10;;
19985;SDS011;10154;52.474;10.768;2022-10-29T02:46:26;13.40;;;6.03;;
19985;SDS011;10154;52.474;10.768;2022-10-29T02:48:51;20.07;;;6.00;;
19985;SDS011;10154;52.474;10.768;2022-10-29T02:51:16;20.93;;;6.77;;
19985;SDS011;10154;52.474;10.768;2022-10-29T02:53:42;20.60;;;6.27;;
19985;SDS011;10154;52.474;10.768;2022-10-29T02:56:08;18.10;;;6.50;;
19985;SDS011;10154;52.474;10.768;2022-10-29T02:58:34;18.73;;;6.00;;
19985;SDS011;10154;52.474;10.768;2022-10-29T03:00:59;19.77;;;6.13;;
19985;SDS011;10154;52.474;10.768;2022-10-29T03:03:25;17.70;;;5.93;;
19985;SDS011;10154;52.474;10.768;2022-10-29T03:05:51;16.47;;;6.20;;
19985;SDS011;10154;52.474;10.768;2022-10-29T03:08:16;17.73;;;6.30;;
19985;SDS011;10154;52.474;10.768;2022-10-29T03:10:41;11.87;;;5.63;;
19985;SDS011;10154;52.474;10.768;2022-10-29T03:13:07;18.63;;;6.83;;
19985;SDS011;10154;52.474;10.768;2022-10-29T03:15:32;15.60;;;6.17;;
19985;SDS011;10154;52.474;10.768;2022-10-29T03:17:57;14.40;;;6.27;;
19985;SDS011;10154;52.474;10.768;2022-10-29T03:20:23;20.57;;;6.03;;
19985;SDS011;10154;52.474;10.768;2022-10-29T03:22:48;17.17;;;5.57;;
19985;SDS011;10154;52.474;10.768;2022-10-29T03:25:14;19.07;;;5.77;;
19985;SDS011;10154;52.474;10.768;2022-10-29T03:27:43;19.77;;;6.07;;
19985;SDS011;10154;52.474;10.768;2022-10-29T03:30:09;17.73;;;6.13;;
19985;SDS011;10154;52.474;10.768;2022-10-29T03:32:47;18.43;;;5.97;;
19985;SDS011;10154;52.474;10.768;2022-10-29T03:35:13;20.20;;;6.43;;
19985;SDS011;10154;52.474;10.768;2022-10-29T03:37:39;18.07;;;6.27;;
19985;SDS011;10154;52.474;10.768;2022-10-29T03:40:05;11.80;;;6.03;;
19985;SDS011;10154;52.474;10.768;2022-10-29T03:42:31;16.13;;;5.97;;
19985;SDS011;10154;52.474;10.768;2022-10-29T03:44:56;20.87;;;6.03;;
19985;SDS011;10154;52.474;10.768;2022-10-29T03:47:22;15.27;;;5.80;;
19985;SDS011;10154;52.474;10.768;2022-10-29T03:49:48;18.10;;;5.93;;
19985;SDS011;10154;52.474;10.768;2022-10-29T03:52:13;18.90;;;6.43;;
19985;SDS011;10154;52.474;10.768;2022-10-29T03:54:38;16.27;;;6.67;;
19985;SDS011;10154;52.474;10.768;2022-10-29T03:57:03;17.83;;;6.20;;
19985;SDS011;10154;52.474;10.768;2022-10-29T03:59:29;16.17;;;5.90;;
19985;SDS011;10154;52.474;10.768;2022-10-29T04:01:54;15.37;;;6.23;;
19985;SDS011;10154;52.474;10.768;2022-10-29T04:04:19;16.53;;;6.10;;
19985;SDS011;10154;52.474;10.768;2022-10-29T04:06:45;14.77;;;6.00;;
19985;SDS011;10154;52.474;10.768;2022-10-29T04:09:10;16.70;;;6.07;;
19985;SDS011;10154;52.474;10.768;2022-10-29T04:11:35;15.13;;;5.93;;
19985;SDS011;10154;52.474;10.768;2022-10-29T04:14:01;22.97;;;6.70;;
19985;SDS011;10154;52.474;10.768;2022-10-29T04:16:26;18.60;;;6.43;;
19985;SDS011;10154;52.474;10.768;2022-10-29T04:18:51;16.57;;;6.40;;
19985;SDS011;10154;52.474;10.768;2022-10-29T04:21:17;12.53;;;6.50;;
19985;SDS011;10154;52.474;10.768;2022-10-29T04:23:42;16.57;;;6.20;;
19985;SDS011;10154;52.474;10.768;2022-10-29T04:26:07;16.53;;;5.63;;
19985;SDS011;10154;52.474;10.768;2022-10-29T04:28:33;18.67;;;6.30;;
19985;SDS011;10154;52.474;10.768;2022-10-29T04:31:08;17.83;;;5.90;;
19985;SDS011;10154;52.474;10.768;2022-10-29T04:33:35;17.60;;;6.70;;
19985;SDS011;10154;52.474;10.768;2022-10-29T04:36:01;16.63;;;6.47;;
19985;SDS011;10154;52.474;10.768;2022-10-29T04:38:26;18.37;;;6.60;;
19985;SDS011;10154;52.474;10.768;2022-10-29T04:40:52;16.87;;;6.73;;
19985;SDS011;10154;52.474;10.768;2022-10-29T04:43:17;15.30;;;6.80;;
19985;SDS011;10154;52.474;10.768;2022-10-29T04:45:42;17.27;;;6.60;;
19985;SDS011;10154;52.474;10.768;2022-10-29T04:48:08;20.20;;;6.97;;
19985;SDS011;10154;52.474;10.768;2022-10-29T04:50:35;13.47;;;6.90;;
19985;SDS011;10154;52.474;10.768;2022-10-29T04:53:02;15.10;;;6.70;;
19985;SDS011;10154;52.474;10.768;2022-10-29T04:55:29;15.63;;;7.30;;
19985;SDS011;10154;52.474;10.768;2022-10-29T04:57:54;16.67;;;6.73;;
19985;SDS011;10154;52.474;10.768;2022-10-29T05:00:20;14.23;;;6.70;;
19985;SDS011;10154;52.474;10.768;2022-10-29T05:02:47;15.10;;;6.77;;
19985;SDS011;10154;52.474;10.768;2022-10-29T05:05:13;16.57;;;6.80;;
19985;SDS011;10154;52.474;10.768;2022-10-29T05:07:39;15.23;;;6.53;;
19985;SDS011;10154;52.474;10.768;2022-10-29T05:10:04;19.23;;;6.57;;
19985;SDS011;10154;52.474;10.768;2022-10-29T05:12:30;22.07;;;7.83;;
19985;SDS011;10154;52.474;10.768;2022-10-29T05:14:55;11.03;;;6.20;;
19985;SDS011;10154;52.474;10.768;2022-10-29T05:17:21;15.77;;;6.80;;
19985;SDS011;10154;52.474;10.768;2022-10-29T05:19:46;13.33;;;6.43;;
19985;SDS011;10154;52.474;10.768;2022-10-29T05:22:11;17.50;;;6.77;;
19985;SDS011;10154;52.474;10.768;2022-10-29T05:24:36;12.20;;;6.50;;
19985;SDS011;10154;52.474;10.768;2022-10-29T05:27:04;16.17;;;6.67;;
19985;SDS011;10154;52.474;10.768;2022-10-29T05:29:30;16.57;;;6.77;;
19985;SDS011;10154;52.474;10.768;2022-10-29T05:31:55;17.20;;;6.83;;
19985;SDS011;10154;52.474;10.768;2022-10-29T05:34:20;10.20;;;6.73;;
19985;SDS011;10154;52.474;10.768;2022-10-29T05:36:45;18.37;;;7.17;;
19985;SDS011;10154;52.474;10.768;2022-10-29T05:39:11;17.00;;;7.53;;
19985;SDS011;10154;52.474;10.768;2022-10-29T05:41:36;20.00;;;7.87;;
19985;SDS011;10154;52.474;10.768;2022-10-29T05:44:01;19.43;;;7.47;;
19985;SDS011;10154;52.474;10.768;2022-10-29T05:46:27;15.80;;;7.50;;
19985;SDS011;10154;52.474;10.768;2022-10-29T05:48:52;20.70;;;8.60;;
19985;SDS011;10154;52.474;10.768;2022-10-29T05:51:17;21.57;;;8.87;;
19985;SDS011;10154;52.474;10.768;2022-10-29T05:53:43;25.07;;;10.20;;
19985;SDS011;10154;52.474;10.768;2022-10-29T05:56:08;21.47;;;10.57;;
19985;SDS011;10154;52.474;10.768;2022-10-29T05:58:33;23.23;;;10.53;;
19985;SDS011;10154;52.474;10.768;2022-10-29T06:00:59;17.90;;;9.17;;
19985;SDS011;10154;52.474;10.768;2022-10-29T06:03:24;21.40;;;10.00;;
19985;SDS011;10154;52.474;10.768;2022-10-29T06:05:49;20.17;;;9.30;;
19985;SDS011;10154;52.474;10.768;2022-10-29T06:08:15;22.73;;;9.53;;
19985;SDS011;10154;52.474;10.768;2022-10-29T06:10:41;20.37;;;9.10;;
19985;SDS011;10154;52.474;10.768;2022-10-29T06:13:14;22.33;;;9.37;;
19985;SDS011;10154;52.474;10.768;2022-10-29T06:15:41;22.10;;;8.97;;
19985;SDS011;10154;52.474;10.768;2022-10-29T06:18:08;20.67;;;9.40;;
19985;SDS011;10154;52.474;10.768;2022-10-29T06:20:34;18.67;;;8.97;;
19985;SDS011;10154;52.474;10.768;2022-10-29T06:23:00;17.90;;;9.53;;
19985;SDS011;10154;52.474;10.768;2022-10-29T06:25:25;23.63;;;9.67;;
19985;SDS011;10154;52.474;10.768;2022-10-29T06:28:24;16.70;;;9.10;;
19985;SDS011;10154;52.474;10.768;2022-10-29T06:30:47;15.53;;;9.23;;
19985;SDS011;10154;52.474;10.768;2022-10-29T06:33:13;19.17;;;9.37;;
19985;SDS011;10154;52.474;10.768;2022-10-29T06:35:39;17.37;;;9.73;;
19985;SDS011;10154;52.474;10.768;2022-10-29T06:38:04;17.17;;;9.50;;
19985;SDS011;10154;52.474;10.768;2022-10-29T06:40:29;15.03;;;9.57;;
19985;SDS011;10154;52.474;10.768;2022-10-29T06:42:58;22.93;;;9.27;;
19985;SDS011;10154;52.474;10.768;2022-10-29T06:45:24;16.03;;;8.87;;
19985;SDS011;10154;52.474;10.768;2022-10-29T06:47:49;20.63;;;9.13;;
19985;SDS011;10154;52.474;10.768;2022-10-29T06:50:14;18.30;;;8.67;;
19985;SDS011;10154;52.474;10.768;2022-10-29T06:52:40;17.40;;;8.60;;
19985;SDS011;10154;52.474;10.768;2022-10-29T06:55:06;23.30;;;9.43;;
19985;SDS011;10154;52.474;10.768;2022-10-29T06:57:32;24.13;;;9.33;;
19985;SDS011;10154;52.474;10.768;2022-10-29T06:59:57;24.67;;;9.23;;
19985;SDS011;10154;52.474;10.768;2022-10-29T07:02:22;26.40;;;10.53;;
19985;SDS011;10154;52.474;10.768;2022-10-29T07:04:48;24.20;;;10.60;;
19985;SDS011;10154;52.474;10.768;2022-10-29T07:07:13;26.70;;;10.00;;
19985;SDS011;10154;52.474;10.768;2022-10-29T07:09:39;20.33;;;9.47;;
19985;SDS011;10154;52.474;10.768;2022-10-29T07:12:07;20.27;;;9.77;;
19985;SDS011;10154;52.474;10.768;2022-10-29T07:14:33;19.13;;;10.03;;
19985;SDS011;10154;52.474;10.768;2022-10-29T07:16:58;20.63;;;10.00;;
19985;SDS011;10154;52.474;10.768;2022-10-29T07:19:23;25.60;;;10.37;;
19985;SDS011;10154;52.474;10.768;2022-10-29T07:21:49;19.67;;;9.40;;
19985;SDS011;10154;52.474;10.768;2022-10-29T07:24:14;19.97;;;9.10;;
19985;SDS011;10154;52.474;10.768;2022-10-29T07:26:41;18.83;;;8.60;;
19985;SDS011;10154;52.474;10.768;2022-10-29T07:29:07;21.80;;;8.70;;
19985;SDS011;10154;52.474;10.768;2022-10-29T07:31:32;15.80;;;8.63;;
19985;SDS011;10154;52.474;10.768;2022-10-29T07:33:57;18.20;;;8.60;;
19985;SDS011;10154;52.474;10.768;2022-10-29T07:36:23;18.97;;;8.67;;
19985;SDS011;10154;52.474;10.768;2022-10-29T07:38:48;16.77;;;8.80;;
19985;SDS011;10154;52.474;10.768;2022-10-29T07:41:13;18.27;;;9.60;;
19985;SDS011;10154;52.474;10.768;2022-10-29T07:43:39;29.83;;;9.97;;
19985;SDS011;10154;52.474;10.768;2022-10-29T07:46:04;21.27;;;9.23;;
19985;SDS011;10154;52.474;10.768;2022-10-29T07:48:30;22.73;;;8.77;;
19985;SDS011;10154;52.474;10.768;2022-10-29T07:50:58;23.70;;;9.00;;
19985;SDS011;10154;52.474;10.768;2022-10-29T07:53:24;22.00;;;8.50;;
19985;SDS011;10154;52.474;10.768;2022-10-29T07:55:53;21.63;;;9.10;;
19985;SDS011;10154;52.474;10.768;2022-10-29T07:58:19;25.97;;;9.10;;
19985;SDS011;10154;52.474;10.768;2022-10-29T08:00:44;21.87;;;9.30;;
19985;SDS011;10154;52.474;10.768;2022-10-29T08:03:10;24.33;;;9.60;;
19985;SDS011;10154;52.474;10.768;2022-10-29T08:05:36;29.93;;;9.50;;
19985;SDS011;10154;52.474;10.768;2022-10-29T08:08:02;23.83;;;9.40;;
19985;SDS011;10154;52.474;10.768;2022-10-29T08:10:28;27.33;;;9.77;;
19985;SDS011;10154;52.474;10.768;2022-10-29T08:12:57;21.83;;;9.80;;
19985;SDS011;10154;52.474;10.768;2022-10-29T08:15:25;23.23;;;9.30;;
19985;SDS011;10154;52.474;10.768;2022-10-29T08:17:51;26.77;;;9.77;;
19985;SDS011;10154;52.474;10.768;2022-10-29T08:20:17;26.13;;;9.13;;
19985;SDS011;10154;52.474;10.768;2022-10-29T08:22:43;23.23;;;9.57;;
19985;SDS011;10154;52.474;10.768;2022-10-29T08:25:08;23.57;;;9.67;;
19985;SDS011;10154;52.474;10.768;2022-10-29T08:27:34;25.27;;;10.53;;
19985;SDS011;10154;52.474;10.768;2022-10-29T08:29:59;25.43;;;9.70;;
19985;SDS011;10154;52.474;10.768;2022-10-29T08:32:24;23.20;;;9.03;;
19985;SDS011;10154;52.474;10.768;2022-10-29T08:34:51;23.30;;;9.13;;
19985;SDS011;10154;52.474;10.768;2022-10-29T08:37:16;22.87;;;9.30;;
19985;SDS011;10154;52.474;10.768;2022-10-29T08:39:42;24.63;;;8.90;;
19985;SDS011;10154;52.474;10.768;2022-10-29T08:45:12;25.43;;;9.10;;
19985;SDS011;10154;52.474;10.768;2022-10-29T08:53:05;28.60;;;9.05;;
19985;SDS011;10154;52.474;10.768;2022-10-29T08:55:38;21.65;;;9.10;;
19985;SDS011;10154;52.474;10.768;2022-10-29T08:58:10;23.77;;;8.82;;
19985;SDS011;10154;52.474;10.768;2022-10-29T09:00:45;19.98;;;8.63;;
19985;SDS011;10154;52.474;10.768;2022-10-29T09:03:13;22.63;;;8.65;;
19985;SDS011;10154;52.474;10.768;2022-10-29T09:10:53;26.75;;;8.45;;
19985;SDS011;10154;52.474;10.768;2022-10-29T09:21:35;24.13;;;8.15;;
19985;SDS011;10154;52.474;10.768;2022-10-29T09:24:12;22.45;;;7.88;;
19985;SDS011;10154;52.474;10.768;2022-10-29T09:29:26;30.85;;;8.48;;
19985;SDS011;10154;52.474;10.768;2022-10-29T09:32:55;22.77;;;7.82;;
19985;SDS011;10154;52.474;10.768;2022-10-29T09:35:19;21.85;;;7.95;;
19985;SDS011;10154;52.474;10.768;2022-10-29T09:37:48;19.65;;;8.48;;
19985;SDS011;10154;52.474;10.768;2022-10-29T09:40:32;25.90;;;9.00;;
19985;SDS011;10154;52.474;10.768;2022-10-29T09:42:59;29.40;;;8.80;;
19985;SDS011;10154;52.474;10.768;2022-10-29T09:45:40;20.63;;;8.50;;
19985;SDS011;10154;52.474;10.768;2022-10-29T09:48:19;26.52;;;8.90;;
19985;SDS011;10154;52.474;10.768;2022-10-29T09:51:12;30.23;;;9.55;;
19985;SDS011;10154;52.474;10.768;2022-10-29T09:53:34;26.00;;;8.80;;
19985;SDS011;10154;52.474;10.768;2022-10-29T09:56:06;22.92;;;8.50;;
19985;SDS011;10154;52.474;10.768;2022-10-29T09:58:32;21.13;;;8.27;;
19985;SDS011;10154;52.474;10.768;2022-10-29T10:01:03;22.30;;;8.52;;
19985;SDS011;10154;52.474;10.768;2022-10-29T10:03:33;24.27;;;7.65;;
19985;SDS011;10154;52.474;10.768;2022-10-29T10:06:13;25.92;;;8.98;;
19985;SDS011;10154;52.474;10.768;2022-10-29T10:14:06;23.85;;;7.55;;
19985;SDS011;10154;52.474;10.768;2022-10-29T10:16:38;25.20;;;8.15;;
19985;SDS011;10154;52.474;10.768;2022-10-29T10:19:18;27.38;;;8.82;;
19985;SDS011;10154;52.474;10.768;2022-10-29T10:21:46;22.52;;;8.32;;
19985;SDS011;10154;52.474;10.768;2022-10-29T10:24:30;25.50;;;7.35;;
19985;SDS011;10154;52.474;10.768;2022-10-29T10:26:59;24.85;;;8.13;;
19985;SDS011;10154;52.474;10.768;2022-10-29T10:29:31;28.55;;;8.65;;
19985;SDS011;10154;52.474;10.768;2022-10-29T10:37:01;25.95;;;7.95;;
19985;SDS011;10154;52.474;10.768;2022-10-29T10:39:38;23.48;;;7.50;;
19985;SDS011;10154;52.474;10.768;2022-10-29T10:42:23;29.38;;;9.13;;
19985;SDS011;10154;52.474;10.768;2022-10-29T10:44:58;30.23;;;8.90;;
19985;SDS011;10154;52.474;10.768;2022-10-29T10:47:25;25.52;;;8.57;;
19985;SDS011;10154;52.474;10.768;2022-10-29T10:49:53;28.98;;;8.20;;
19985;SDS011;10154;52.474;10.768;2022-10-29T10:52:24;18.20;;;7.40;;
19985;SDS011;10154;52.474;10.768;2022-10-29T10:57:23;20.00;;;7.70;;
19985;SDS011;10154;52.474;10.768;2022-10-29T10:59:53;20.98;;;7.90;;
19985;SDS011;10154;52.474;10.768;2022-10-29T11:05:20;19.88;;;7.93;;
19985;SDS011;10154;52.474;10.768;2022-10-29T11:10:58;16.98;;;6.68;;
19985;SDS011;10154;52.474;10.768;2022-10-29T11:13:28;24.48;;;7.38;;
19985;SDS011;10154;52.474;10.768;2022-10-29T11:15:55;14.57;;;6.65;;
19985;SDS011;10154;52.474;10.768;2022-10-29T11:18:29;24.75;;;7.47;;
19985;SDS011;10154;52.474;10.768;2022-10-29T11:24:19;29.25;;;6.88;;
19985;SDS011;10154;52.474;10.768;2022-10-29T11:26:31;20.17;;;7.38;;
19985;SDS011;10154;52.474;10.768;2022-10-29T11:31:57;30.55;;;7.57;;
19985;SDS011;10154;52.474;10.768;2022-10-29T11:34:36;23.10;;;7.45;;
19985;SDS011;10154;52.474;10.768;2022-10-29T11:42:26;21.92;;;7.82;;
19985;SDS011;10154;52.474;10.768;2022-10-29T11:44:51;20.60;;;7.90;;
19985;SDS011;10154;52.474;10.768;2022-10-29T11:57:58;22.27;;;7.53;;
19985;SDS011;10154;52.474;10.768;2022-10-29T12:00:26;20.25;;;7.03;;
19985;SDS011;10154;52.474;10.768;2022-10-29T12:05:54;27.50;;;7.68;;
19985;SDS011;10154;52.474;10.768;2022-10-29T12:11:12;25.60;;;7.75;;
19985;SDS011;10154;52.474;10.768;2022-10-29T12:16:36;17.35;;;7.00;;
19985;SDS011;10154;52.474;10.768;2022-10-29T12:27:52;14.77;;;6.82;;
19985;SDS011;10154;52.474;10.768;2022-10-29T12:30:03;23.98;;;7.00;;
19985;SDS011;10154;52.474;10.768;2022-10-29T12:38:29;14.88;;;7.05;;
19985;SDS011;10154;52.474;10.768;2022-10-29T12:41:04;19.33;;;6.97;;
19985;SDS011;10154;52.474;10.768;2022-10-29T12:43:35;19.88;;;7.20;;
19985;SDS011;10154;52.474;10.768;2022-10-29T12:56:48;26.55;;;8.30;;
19985;SDS011;10154;52.474;10.768;2022-10-29T13:01:49;23.50;;;7.53;;
19985;SDS011;10154;52.474;10.768;2022-10-29T13:04:24;32.78;;;7.50;;
19985;SDS011;10154;52.474;10.768;2022-10-29T13:09:22;16.60;;;6.88;;
19985;SDS011;10154;52.474;10.768;2022-10-29T13:14:26;22.75;;;6.90;;
19985;SDS011;10154;52.474;10.768;2022-10-29T13:16:58;21.05;;;6.65;;
19985;SDS011;10154;52.474;10.768;2022-10-29T13:24:39;21.83;;;6.78;;
19985;SDS011;10154;52.474;10.768;2022-10-29T13:27:31;16.67;;;7.30;;
19985;SDS011;10154;52.474;10.768;2022-10-29T13:32:51;20.55;;;7.75;;
19985;SDS011;10154;52.474;10.768;2022-10-29T13:37:48;22.42;;;9.35;;
19985;SDS011;10154;52.474;10.768;2022-10-29T13:45:22;22.25;;;6.97;;
19985;SDS011;10154;52.474;10.768;2022-10-29T13:47:47;28.63;;;7.72;;
19985;SDS011;10154;52.474;10.768;2022-10-29T13:50:16;21.23;;;7.70;;
19985;SDS011;10154;52.474;10.768;2022-10-29T13:52:42;24.63;;;7.55;;
19985;SDS011;10154;52.474;10.768;2022-10-29T13:55:11;21.10;;;7.20;;
19985;SDS011;10154;52.474;10.768;2022-10-29T14:00:25;25.05;;;7.88;;
19985;SDS011;10154;52.474;10.768;2022-10-29T14:02:53;21.15;;;6.88;;
19985;SDS011;10154;52.474;10.768;2022-10-29T14:05:27;26.30;;;10.82;;
19985;SDS011;10154;52.474;10.768;2022-10-29T14:07:57;17.15;;;7.40;;
19985;SDS011;10154;52.474;10.768;2022-10-29T14:10:31;21.27;;;8.40;;
19985;SDS011;10154;52.474;10.768;2022-10-29T14:13:00;19.58;;;7.40;;
19985;SDS011;10154;52.474;10.768;2022-10-29T14:18:34;27.55;;;9.25;;
19985;SDS011;10154;52.474;10.768;2022-10-29T14:21:05;19.77;;;7.78;;
19985;SDS011;10154;52.474;10.768;2022-10-29T14:23:35;21.40;;;9.00;;
19985;SDS011;10154;52.474;10.768;2022-10-29T14:26:04;22.70;;;8.23;;
19985;SDS011;10154;52.474;10.768;2022-10-29T14:28:36;19.67;;;7.47;;
19985;SDS011;10154;52.474;10.768;2022-10-29T14:31:05;21.35;;;7.72;;
19985;SDS011;10154;52.474;10.768;2022-10-29T14:33:45;19.42;;;7.32;;
19985;SDS011;10154;52.474;10.768;2022-10-29T14:36:20;21.05;;;7.72;;
19985;SDS011;10154;52.474;10.768;2022-10-29T14:41:15;13.70;;;6.40;;
19985;SDS011;10154;52.474;10.768;2022-10-29T14:43:41;22.98;;;8.25;;
19985;SDS011;10154;52.474;10.768;2022-10-29T14:46:17;17.77;;;7.70;;
19985;SDS011;10154;52.474;10.768;2022-10-29T14:51:38;20.38;;;8.05;;
19985;SDS011;10154;52.474;10.768;2022-10-29T14:54:04;19.38;;;8.38;;
19985;SDS011;10154;52.474;10.768;2022-10-29T14:56:33;29.17;;;8.10;;
19985;SDS011;10154;52.474;10.768;2022-10-29T14:59:00;20.52;;;7.80;;
19985;SDS011;10154;52.474;10.768;2022-10-29T15:01:27;20.10;;;8.15;;
19985;SDS011;10154;52.474;10.768;2022-10-29T15:03:56;21.27;;;8.30;;
19985;SDS011;10154;52.474;10.768;2022-10-29T15:06:26;18.05;;;7.60;;
19985;SDS011;10154;52.474;10.768;2022-10-29T15:08:59;23.67;;;7.95;;
19985;SDS011;10154;52.474;10.768;2022-10-29T15:11:35;17.25;;;7.50;;
19985;SDS011;10154;52.474;10.768;2022-10-29T15:14:02;16.35;;;6.85;;
19985;SDS011;10154;52.474;10.768;2022-10-29T15:16:29;14.77;;;7.32;;
19985;SDS011;10154;52.474;10.768;2022-10-29T15:18:54;19.35;;;7.28;;
19985;SDS011;10154;52.474;10.768;2022-10-29T15:23:47;20.00;;;7.60;;
19985;SDS011;10154;52.474;10.768;2022-10-29T15:26:16;17.15;;;7.18;;
19985;SDS011;10154;52.474;10.768;2022-10-29T15:28:46;16.75;;;7.60;;
19985;SDS011;10154;52.474;10.768;2022-10-29T15:33:50;17.40;;;7.88;;
19985;SDS011;10154;52.474;10.768;2022-10-29T15:36:16;20.20;;;9.40;;
19985;SDS011;10154;52.474;10.768;2022-10-29T15:43:48;21.05;;;8.45;;
19985;SDS011;10154;52.474;10.768;2022-10-29T15:46:22;20.95;;;8.27;;
19985;SDS011;10154;52.474;10.768;2022-10-29T15:48:50;21.93;;;8.37;;
19985;SDS011;10154;52.474;10.768;2022-10-29T15:51:15;19.97;;;8.60;;
19985;SDS011;10154;52.474;10.768;2022-10-29T15:53:41;19.43;;;8.70;;
19985;SDS011;10154;52.474;10.768;2022-10-29T15:56:10;23.90;;;7.95;;
19985;SDS011;10154;52.474;10.768;2022-10-29T15:58:36;14.07;;;8.40;;
19985;SDS011;10154;52.474;10.768;2022-10-29T16:01:02;20.10;;;8.30;;
19985;SDS011;10154;52.474;10.768;2022-10-29T16:03:27;21.33;;;8.27;;
19985;SDS011;10154;52.474;10.768;2022-10-29T16:05:53;18.23;;;8.67;;
19985;SDS011;10154;52.474;10.768;2022-10-29T16:10:54;22.20;;;8.73;;
19985;SDS011;10154;52.474;10.768;2022-10-29T16:13:20;22.77;;;8.73;;
19985;SDS011;10154;52.474;10.768;2022-10-29T16:15:47;18.77;;;8.27;;
19985;SDS011;10154;52.474;10.768;2022-10-29T16:18:13;26.47;;;12.47;;
19985;SDS011;10154;52.474;10.768;2022-10-29T16:20:38;23.53;;;11.23;;
19985;SDS011;10154;52.474;10.768;2022-10-29T16:23:04;22.50;;;9.73;;
19985;SDS011;10154;52.474;10.768;2022-10-29T16:25:29;72.80;;;29.87;;
19985;SDS011;10154;52.474;10.768;2022-10-29T16:27:54;61.00;;;24.47;;
19985;SDS011;10154;52.474;10.768;2022-10-29T16:30:20;43.07;;;15.90;;
19985;SDS011;10154;52.474;10.768;2022-10-29T16:32:47;49.00;;;18.43;;
19985;SDS011;10154;52.474;10.768;2022-10-29T16:35:19;38.43;;;15.43;;
19985;SDS011;10154;52.474;10.768;2022-10-29T16:37:45;52.63;;;18.27;;
19985;SDS011;10154;52.474;10.768;2022-10-29T16:40:11;42.87;;;16.17;;
19985;SDS011;10154;52.474;10.768;2022-10-29T16:42:36;48.27;;;19.23;;
19985;SDS011;10154;52.474;10.768;2022-10-29T16:45:02;103.60;;;33.77;;
19985;SDS011;10154;52.474;10.768;2022-10-29T16:47:28;57.30;;;22.10;;
19985;SDS011;10154;52.474;10.768;2022-10-29T16:49:54;40.17;;;17.13;;
19985;SDS011;10154;52.474;10.768;2022-10-29T16:52:19;50.93;;;19.33;;
19985;SDS011;10154;52.474;10.768;2022-10-29T16:54:46;43.87;;;14.93;;
19985;SDS011;10154;52.474;10.768;2022-10-29T16:57:11;50.83;;;20.13;;
19985;SDS011;10154;52.474;10.768;2022-10-29T16:59:37;95.07;;;31.27;;
19985;SDS011;10154;52.474;10.768;2022-10-29T17:02:03;55.97;;;20.13;;
19985;SDS011;10154;52.474;10.768;2022-10-29T17:04:28;64.87;;;22.93;;
19985;SDS011;10154;52.474;10.768;2022-10-29T17:06:54;62.23;;;21.90;;
19985;SDS011;10154;52.474;10.768;2022-10-29T17:09:19;38.03;;;13.27;;
19985;SDS011;10154;52.474;10.768;2022-10-29T17:11:44;28.83;;;12.67;;
19985;SDS011;10154;52.474;10.768;2022-10-29T17:14:10;66.63;;;22.80;;
19985;SDS011;10154;52.474;10.768;2022-10-29T17:16:35;101.13;;;33.63;;
19985;SDS011;10154;52.474;10.768;2022-10-29T17:19:00;76.97;;;28.23;;
19985;SDS011;10154;52.474;10.768;2022-10-29T17:21:28;58.07;;;23.10;;
19985;SDS011;10154;52.474;10.768;2022-10-29T17:23:55;137.37;;;40.30;;
19985;SDS011;10154;52.474;10.768;2022-10-29T17:26:20;96.73;;;29.80;;
19985;SDS011;10154;52.474;10.768;2022-10-29T17:28:45;70.10;;;22.87;;
19985;SDS011;10154;52.474;10.768;2022-10-29T17:31:11;46.13;;;17.20;;